sensor_id;sensor_type;location;lat;lon;timestamp;P1;durP1;ratioP1;P2;durP2;ratioP2
76194;SDS011;64964;48.694;21.206;2023-04-26T00:01:50;7.45;;;4.28;;
76194;SDS011;64964;48.694;21.206;2023-04-26T00:04:17;8.43;;;4.20;;
76194;SDS011;64964;48.694;21.206;2023-04-26T00:06:42;6.83;;;4.00;;
76194;SDS011;64964;48.694;21.206;2023-04-26T00:09:07;5.17;;;3.83;;
76194;SDS011;64964;48.694;21.206;2023-04-26T00:11:33;6.70;;;3.83;;
76194;SDS011;64964;48.694;21.206;2023-04-26T00:13:58;5.33;;;3.63;;
76194;SDS011;64964;48.694;21.206;2023-04-26T00:16:23;6.80;;;4.00;;
76194;SDS011;64964;48.694;21.206;2023-04-26T00:18:49;5.30;;;3.60;;
76194;SDS011;64964;48.694;21.206;2023-04-26T00:21:15;5.60;;;4.10;;
76194;SDS011;64964;48.694;21.206;2023-04-26T00:23:40;8.05;;;3.95;;
76194;SDS011;64964;48.694;21.206;2023-04-26T00:26:06;6.97;;;3.50;;
76194;SDS011;64964;48.694;21.206;2023-04-26T00:28:31;6.55;;;3.80;;
76194;SDS011;64964;48.694;21.206;2023-04-26T00:30:57;5.70;;;3.70;;
76194;SDS011;64964;48.694;21.206;2023-04-26T00:33:22;6.43;;;3.80;;
76194;SDS011;64964;48.694;21.206;2023-04-26T00:35:48;5.38;;;3.40;;
76194;SDS011;64964;48.694;21.206;2023-04-26T00:38:14;9.73;;;4.03;;
76194;SDS011;64964;48.694;21.206;2023-04-26T00:40:39;8.25;;;4.03;;
76194;SDS011;64964;48.694;21.206;2023-04-26T00:43:05;5.13;;;3.87;;
76194;SDS011;64964;48.694;21.206;2023-04-26T00:45:30;5.80;;;3.90;;
76194;SDS011;64964;48.694;21.206;2023-04-26T00:47:57;5.37;;;3.83;;
76194;SDS011;64964;48.694;21.206;2023-04-26T00:50:25;6.53;;;3.55;;
76194;SDS011;64964;48.694;21.206;2023-04-26T00:52:51;5.97;;;3.87;;
76194;SDS011;64964;48.694;21.206;2023-04-26T00:55:17;5.88;;;3.67;;
76194;SDS011;64964;48.694;21.206;2023-04-26T00:57:45;8.95;;;3.90;;
76194;SDS011;64964;48.694;21.206;2023-04-26T01:00:10;5.40;;;3.53;;
76194;SDS011;64964;48.694;21.206;2023-04-26T01:02:36;6.68;;;4.35;;
76194;SDS011;64964;48.694;21.206;2023-04-26T01:05:02;7.00;;;3.97;;
76194;SDS011;64964;48.694;21.206;2023-04-26T01:07:29;8.32;;;4.40;;
76194;SDS011;64964;48.694;21.206;2023-04-26T01:09:55;8.95;;;4.95;;
76194;SDS011;64964;48.694;21.206;2023-04-26T01:12:21;7.82;;;4.65;;
76194;SDS011;64964;48.694;21.206;2023-04-26T01:14:48;7.05;;;4.45;;
76194;SDS011;64964;48.694;21.206;2023-04-26T01:17:13;9.40;;;4.80;;
76194;SDS011;64964;48.694;21.206;2023-04-26T01:19:45;6.57;;;4.50;;
76194;SDS011;64964;48.694;21.206;2023-04-26T01:22:12;6.15;;;4.05;;
76194;SDS011;64964;48.694;21.206;2023-04-26T01:24:37;5.33;;;4.10;;
76194;SDS011;64964;48.694;21.206;2023-04-26T01:27:06;6.50;;;4.63;;
76194;SDS011;64964;48.694;21.206;2023-04-26T01:29:31;7.10;;;4.60;;
76194;SDS011;64964;48.694;21.206;2023-04-26T01:31:57;9.35;;;4.65;;
76194;SDS011;64964;48.694;21.206;2023-04-26T01:34:22;8.13;;;4.57;;
76194;SDS011;64964;48.694;21.206;2023-04-26T01:36:48;7.63;;;4.63;;
76194;SDS011;64964;48.694;21.206;2023-04-26T01:39:14;7.27;;;4.47;;
76194;SDS011;64964;48.694;21.206;2023-04-26T01:41:39;7.20;;;4.67;;
76194;SDS011;64964;48.694;21.206;2023-04-26T01:44:05;7.63;;;5.05;;
76194;SDS011;64964;48.694;21.206;2023-04-26T01:46:30;7.60;;;4.70;;
76194;SDS011;64964;48.694;21.206;2023-04-26T01:48:56;7.63;;;4.87;;
76194;SDS011;64964;48.694;21.206;2023-04-26T01:51:21;7.67;;;4.90;;
76194;SDS011;64964;48.694;21.206;2023-04-26T01:53:47;6.10;;;4.63;;
76194;SDS011;64964;48.694;21.206;2023-04-26T01:56:12;8.63;;;4.80;;
76194;SDS011;64964;48.694;21.206;2023-04-26T01:58:37;7.93;;;4.70;;
76194;SDS011;64964;48.694;21.206;2023-04-26T02:01:04;7.20;;;4.77;;
76194;SDS011;64964;48.694;21.206;2023-04-26T02:03:33;8.13;;;4.90;;
76194;SDS011;64964;48.694;21.206;2023-04-26T02:05:59;9.47;;;5.03;;
76194;SDS011;64964;48.694;21.206;2023-04-26T02:08:24;5.97;;;4.40;;
76194;SDS011;64964;48.694;21.206;2023-04-26T02:10:50;7.60;;;4.63;;
76194;SDS011;64964;48.694;21.206;2023-04-26T02:13:15;9.73;;;5.00;;
76194;SDS011;64964;48.694;21.206;2023-04-26T02:15:44;9.43;;;4.97;;
76194;SDS011;64964;48.694;21.206;2023-04-26T02:18:10;7.47;;;4.60;;
76194;SDS011;64964;48.694;21.206;2023-04-26T02:20:36;7.15;;;4.05;;
76194;SDS011;64964;48.694;21.206;2023-04-26T02:23:07;11.15;;;4.70;;
76194;SDS011;64964;48.694;21.206;2023-04-26T02:25:33;6.90;;;4.72;;
76194;SDS011;64964;48.694;21.206;2023-04-26T02:27:58;7.80;;;4.60;;
76194;SDS011;64964;48.694;21.206;2023-04-26T02:30:23;7.27;;;4.50;;
76194;SDS011;64964;48.694;21.206;2023-04-26T02:32:49;7.23;;;4.27;;
76194;SDS011;64964;48.694;21.206;2023-04-26T02:35:17;6.82;;;4.00;;
76194;SDS011;64964;48.694;21.206;2023-04-26T02:37:43;7.20;;;3.93;;
76194;SDS011;64964;48.694;21.206;2023-04-26T02:40:08;8.63;;;3.80;;
76194;SDS011;64964;48.694;21.206;2023-04-26T02:42:34;7.17;;;3.83;;
76194;SDS011;64964;48.694;21.206;2023-04-26T02:45:00;5.38;;;3.72;;
76194;SDS011;64964;48.694;21.206;2023-04-26T02:47:25;9.40;;;3.90;;
76194;SDS011;64964;48.694;21.206;2023-04-26T02:49:51;4.93;;;3.40;;
76194;SDS011;64964;48.694;21.206;2023-04-26T02:52:16;6.70;;;3.50;;
76194;SDS011;64964;48.694;21.206;2023-04-26T02:54:42;9.82;;;3.50;;
76194;SDS011;64964;48.694;21.206;2023-04-26T02:57:07;6.90;;;3.57;;
76194;SDS011;64964;48.694;21.206;2023-04-26T02:59:32;6.40;;;3.87;;
76194;SDS011;64964;48.694;21.206;2023-04-26T03:01:58;7.63;;;3.83;;
76194;SDS011;64964;48.694;21.206;2023-04-26T03:04:23;5.60;;;3.57;;
76194;SDS011;64964;48.694;21.206;2023-04-26T03:06:48;6.97;;;3.63;;
76194;SDS011;64964;48.694;21.206;2023-04-26T03:09:14;5.83;;;3.50;;
76194;SDS011;64964;48.694;21.206;2023-04-26T03:11:39;6.63;;;3.50;;
76194;SDS011;64964;48.694;21.206;2023-04-26T03:14:04;7.60;;;3.20;;
76194;SDS011;64964;48.694;21.206;2023-04-26T03:16:30;5.30;;;3.37;;
76194;SDS011;64964;48.694;21.206;2023-04-26T03:18:55;7.13;;;3.35;;
76194;SDS011;64964;48.694;21.206;2023-04-26T03:21:21;6.33;;;3.60;;
76194;SDS011;64964;48.694;21.206;2023-04-26T03:23:46;8.33;;;3.70;;
76194;SDS011;64964;48.694;21.206;2023-04-26T03:26:11;5.25;;;3.17;;
76194;SDS011;64964;48.694;21.206;2023-04-26T03:28:37;10.30;;;3.47;;
76194;SDS011;64964;48.694;21.206;2023-04-26T03:31:02;7.40;;;3.43;;
76194;SDS011;64964;48.694;21.206;2023-04-26T03:33:29;6.47;;;3.57;;
76194;SDS011;64964;48.694;21.206;2023-04-26T03:35:55;7.30;;;3.45;;
76194;SDS011;64964;48.694;21.206;2023-04-26T03:38:20;7.22;;;3.60;;
76194;SDS011;64964;48.694;21.206;2023-04-26T03:40:47;8.90;;;3.77;;
76194;SDS011;64964;48.694;21.206;2023-04-26T03:43:13;6.63;;;3.80;;
76194;SDS011;64964;48.694;21.206;2023-04-26T03:45:38;7.73;;;3.93;;
76194;SDS011;64964;48.694;21.206;2023-04-26T03:48:03;7.47;;;3.80;;
76194;SDS011;64964;48.694;21.206;2023-04-26T03:50:29;10.20;;;3.67;;
76194;SDS011;64964;48.694;21.206;2023-04-26T03:52:54;6.00;;;3.80;;
76194;SDS011;64964;48.694;21.206;2023-04-26T03:55:20;7.73;;;3.87;;
76194;SDS011;64964;48.694;21.206;2023-04-26T03:57:46;7.70;;;3.92;;
76194;SDS011;64964;48.694;21.206;2023-04-26T04:00:12;5.67;;;3.57;;
76194;SDS011;64964;48.694;21.206;2023-04-26T04:02:38;7.97;;;3.85;;
76194;SDS011;64964;48.694;21.206;2023-04-26T04:05:05;6.55;;;3.33;;
76194;SDS011;64964;48.694;21.206;2023-04-26T04:07:32;7.60;;;3.75;;
76194;SDS011;64964;48.694;21.206;2023-04-26T04:09:58;8.53;;;3.90;;
76194;SDS011;64964;48.694;21.206;2023-04-26T04:12:23;11.13;;;3.85;;
76194;SDS011;64964;48.694;21.206;2023-04-26T04:14:49;7.28;;;3.40;;
76194;SDS011;64964;48.694;21.206;2023-04-26T04:17:16;8.10;;;3.58;;
76194;SDS011;64964;48.694;21.206;2023-04-26T04:19:42;5.63;;;4.20;;
76194;SDS011;64964;48.694;21.206;2023-04-26T04:22:07;6.50;;;3.28;;
76194;SDS011;64964;48.694;21.206;2023-04-26T04:24:33;5.53;;;3.17;;
76194;SDS011;64964;48.694;21.206;2023-04-26T04:26:58;8.13;;;3.37;;
76194;SDS011;64964;48.694;21.206;2023-04-26T04:29:25;9.60;;;3.47;;
76194;SDS011;64964;48.694;21.206;2023-04-26T04:31:50;6.83;;;3.50;;
76194;SDS011;64964;48.694;21.206;2023-04-26T04:34:16;9.27;;;3.30;;
76194;SDS011;64964;48.694;21.206;2023-04-26T04:36:41;4.83;;;3.17;;
76194;SDS011;64964;48.694;21.206;2023-04-26T04:39:07;8.27;;;3.90;;
76194;SDS011;64964;48.694;21.206;2023-04-26T04:41:37;8.85;;;3.10;;
76194;SDS011;64964;48.694;21.206;2023-04-26T04:44:04;8.63;;;3.25;;
76194;SDS011;64964;48.694;21.206;2023-04-26T04:46:29;7.90;;;3.07;;
76194;SDS011;64964;48.694;21.206;2023-04-26T04:48:55;7.93;;;3.43;;
76194;SDS011;64964;48.694;21.206;2023-04-26T04:51:20;8.43;;;3.50;;
76194;SDS011;64964;48.694;21.206;2023-04-26T04:53:45;4.57;;;2.63;;
76194;SDS011;64964;48.694;21.206;2023-04-26T04:56:11;6.23;;;2.90;;
76194;SDS011;64964;48.694;21.206;2023-04-26T04:58:36;6.25;;;2.85;;
76194;SDS011;64964;48.694;21.206;2023-04-26T05:01:02;6.00;;;2.67;;
76194;SDS011;64964;48.694;21.206;2023-04-26T05:03:27;5.73;;;2.70;;
76194;SDS011;64964;48.694;21.206;2023-04-26T05:05:52;7.83;;;2.90;;
76194;SDS011;64964;48.694;21.206;2023-04-26T05:08:18;11.57;;;2.60;;
76194;SDS011;64964;48.694;21.206;2023-04-26T05:10:44;4.97;;;2.80;;
76194;SDS011;64964;48.694;21.206;2023-04-26T05:13:09;6.82;;;2.40;;
76194;SDS011;64964;48.694;21.206;2023-04-26T05:15:35;6.57;;;3.10;;
76194;SDS011;64964;48.694;21.206;2023-04-26T05:18:00;4.20;;;2.63;;
76194;SDS011;64964;48.694;21.206;2023-04-26T05:20:26;5.35;;;2.83;;
76194;SDS011;64964;48.694;21.206;2023-04-26T05:22:51;7.33;;;2.60;;
76194;SDS011;64964;48.694;21.206;2023-04-26T05:25:17;7.50;;;2.70;;
76194;SDS011;64964;48.694;21.206;2023-04-26T05:27:42;5.27;;;2.80;;
76194;SDS011;64964;48.694;21.206;2023-04-26T05:30:09;5.57;;;2.72;;
76194;SDS011;64964;48.694;21.206;2023-04-26T05:32:35;7.95;;;3.08;;
76194;SDS011;64964;48.694;21.206;2023-04-26T05:35:00;6.63;;;3.07;;
76194;SDS011;64964;48.694;21.206;2023-04-26T05:37:26;7.20;;;3.10;;
76194;SDS011;64964;48.694;21.206;2023-04-26T05:39:52;7.13;;;2.93;;
76194;SDS011;64964;48.694;21.206;2023-04-26T05:42:17;8.77;;;3.30;;
76194;SDS011;64964;48.694;21.206;2023-04-26T05:44:42;6.93;;;3.30;;
76194;SDS011;64964;48.694;21.206;2023-04-26T05:47:08;7.45;;;3.30;;
76194;SDS011;64964;48.694;21.206;2023-04-26T05:49:35;8.23;;;3.00;;
76194;SDS011;64964;48.694;21.206;2023-04-26T05:52:00;5.68;;;2.85;;
76194;SDS011;64964;48.694;21.206;2023-04-26T05:54:27;6.22;;;2.95;;
76194;SDS011;64964;48.694;21.206;2023-04-26T05:56:53;8.00;;;3.00;;
76194;SDS011;64964;48.694;21.206;2023-04-26T05:59:18;7.77;;;3.07;;
76194;SDS011;64964;48.694;21.206;2023-04-26T06:01:43;9.27;;;3.50;;
76194;SDS011;64964;48.694;21.206;2023-04-26T06:04:08;5.73;;;3.10;;
76194;SDS011;64964;48.694;21.206;2023-04-26T06:06:34;12.00;;;3.03;;
76194;SDS011;64964;48.694;21.206;2023-04-26T06:08:59;6.80;;;2.93;;
76194;SDS011;64964;48.694;21.206;2023-04-26T06:11:25;5.43;;;2.80;;
76194;SDS011;64964;48.694;21.206;2023-04-26T06:13:50;8.03;;;2.87;;
76194;SDS011;64964;48.694;21.206;2023-04-26T06:16:16;7.10;;;3.17;;
76194;SDS011;64964;48.694;21.206;2023-04-26T06:18:41;5.80;;;3.13;;
76194;SDS011;64964;48.694;21.206;2023-04-26T06:21:07;10.03;;;2.83;;
76194;SDS011;64964;48.694;21.206;2023-04-26T06:23:32;6.03;;;2.92;;
76194;SDS011;64964;48.694;21.206;2023-04-26T06:25:57;7.50;;;2.70;;
76194;SDS011;64964;48.694;21.206;2023-04-26T06:28:23;9.13;;;2.47;;
76194;SDS011;64964;48.694;21.206;2023-04-26T06:30:48;5.35;;;2.58;;
76194;SDS011;64964;48.694;21.206;2023-04-26T06:33:14;6.63;;;2.20;;
76194;SDS011;64964;48.694;21.206;2023-04-26T06:35:39;3.73;;;2.00;;
76194;SDS011;64964;48.694;21.206;2023-04-26T06:38:05;5.75;;;2.05;;
76194;SDS011;64964;48.694;21.206;2023-04-26T06:40:30;7.27;;;2.10;;
76194;SDS011;64964;48.694;21.206;2023-04-26T06:42:56;6.43;;;2.53;;
76194;SDS011;64964;48.694;21.206;2023-04-26T06:45:21;5.33;;;2.13;;
76194;SDS011;64964;48.694;21.206;2023-04-26T06:47:47;3.90;;;1.90;;
76194;SDS011;64964;48.694;21.206;2023-04-26T06:50:16;3.75;;;2.05;;
76194;SDS011;64964;48.694;21.206;2023-04-26T06:52:42;6.87;;;2.20;;
76194;SDS011;64964;48.694;21.206;2023-04-26T06:55:07;4.68;;;1.90;;
76194;SDS011;64964;48.694;21.206;2023-04-26T06:57:33;5.60;;;1.97;;
76194;SDS011;64964;48.694;21.206;2023-04-26T06:59:58;5.27;;;2.40;;
76194;SDS011;64964;48.694;21.206;2023-04-26T07:02:24;4.33;;;2.10;;
76194;SDS011;64964;48.694;21.206;2023-04-26T07:04:49;8.43;;;2.00;;
76194;SDS011;64964;48.694;21.206;2023-04-26T07:07:15;4.10;;;1.80;;
76194;SDS011;64964;48.694;21.206;2023-04-26T07:09:41;6.00;;;2.10;;
76194;SDS011;64964;48.694;21.206;2023-04-26T07:12:06;3.00;;;2.00;;
76194;SDS011;64964;48.694;21.206;2023-04-26T07:14:32;5.70;;;1.90;;
76194;SDS011;64964;48.694;21.206;2023-04-26T07:16:59;5.63;;;2.25;;
76194;SDS011;64964;48.694;21.206;2023-04-26T07:19:24;6.07;;;2.20;;
76194;SDS011;64964;48.694;21.206;2023-04-26T07:21:50;5.73;;;2.03;;
76194;SDS011;64964;48.694;21.206;2023-04-26T07:24:15;7.00;;;2.33;;
76194;SDS011;64964;48.694;21.206;2023-04-26T07:26:40;4.28;;;1.80;;
76194;SDS011;64964;48.694;21.206;2023-04-26T07:29:06;3.70;;;2.20;;
76194;SDS011;64964;48.694;21.206;2023-04-26T07:31:31;7.03;;;2.20;;
76194;SDS011;64964;48.694;21.206;2023-04-26T07:33:57;4.47;;;1.90;;
76194;SDS011;64964;48.694;21.206;2023-04-26T07:36:22;5.10;;;2.00;;
76194;SDS011;64964;48.694;21.206;2023-04-26T07:38:48;6.07;;;2.10;;
76194;SDS011;64964;48.694;21.206;2023-04-26T07:41:13;7.50;;;2.08;;
76194;SDS011;64964;48.694;21.206;2023-04-26T07:43:41;5.47;;;1.80;;
76194;SDS011;64964;48.694;21.206;2023-04-26T07:46:06;5.82;;;2.10;;
76194;SDS011;64964;48.694;21.206;2023-04-26T07:48:32;4.23;;;2.00;;
76194;SDS011;64964;48.694;21.206;2023-04-26T07:51:05;6.47;;;2.20;;
76194;SDS011;64964;48.694;21.206;2023-04-26T07:53:32;5.63;;;1.92;;
76194;SDS011;64964;48.694;21.206;2023-04-26T07:55:57;7.23;;;2.00;;
76194;SDS011;64964;48.694;21.206;2023-04-26T07:58:22;4.63;;;1.80;;
76194;SDS011;64964;48.694;21.206;2023-04-26T08:00:48;3.58;;;1.80;;
76194;SDS011;64964;48.694;21.206;2023-04-26T08:03:14;4.13;;;1.60;;
76194;SDS011;64964;48.694;21.206;2023-04-26T08:05:41;5.75;;;1.80;;
76194;SDS011;64964;48.694;21.206;2023-04-26T08:08:07;2.93;;;1.90;;
76194;SDS011;64964;48.694;21.206;2023-04-26T08:10:32;5.60;;;1.90;;
76194;SDS011;64964;48.694;21.206;2023-04-26T08:12:58;5.10;;;1.83;;
76194;SDS011;64964;48.694;21.206;2023-04-26T08:15:27;3.90;;;1.80;;
76194;SDS011;64964;48.694;21.206;2023-04-26T08:17:53;3.45;;;1.60;;
76194;SDS011;64964;48.694;21.206;2023-04-26T08:20:18;6.78;;;1.90;;
76194;SDS011;64964;48.694;21.206;2023-04-26T08:22:44;5.07;;;1.97;;
76194;SDS011;64964;48.694;21.206;2023-04-26T08:25:10;7.00;;;1.90;;
76194;SDS011;64964;48.694;21.206;2023-04-26T08:27:36;4.97;;;1.93;;
76194;SDS011;64964;48.694;21.206;2023-04-26T08:30:01;5.05;;;1.50;;
76194;SDS011;64964;48.694;21.206;2023-04-26T08:32:27;3.13;;;1.73;;
76194;SDS011;64964;48.694;21.206;2023-04-26T08:34:53;5.25;;;1.77;;
76194;SDS011;64964;48.694;21.206;2023-04-26T08:37:19;4.32;;;1.95;;
76194;SDS011;64964;48.694;21.206;2023-04-26T08:39:44;7.27;;;2.17;;
76194;SDS011;64964;48.694;21.206;2023-04-26T08:42:14;7.18;;;1.90;;
76194;SDS011;64964;48.694;21.206;2023-04-26T08:44:41;5.22;;;1.90;;
76194;SDS011;64964;48.694;21.206;2023-04-26T08:50:00;2.92;;;1.67;;
76194;SDS011;64964;48.694;21.206;2023-04-26T08:52:30;7.32;;;1.83;;
76194;SDS011;64964;48.694;21.206;2023-04-26T08:54:57;5.53;;;1.65;;
76194;SDS011;64964;48.694;21.206;2023-04-26T08:57:23;5.80;;;1.58;;
76194;SDS011;64964;48.694;21.206;2023-04-26T08:59:49;4.97;;;1.80;;
76194;SDS011;64964;48.694;21.206;2023-04-26T09:02:19;4.95;;;1.92;;
76194;SDS011;64964;48.694;21.206;2023-04-26T09:04:46;5.93;;;1.90;;
76194;SDS011;64964;48.694;21.206;2023-04-26T09:07:15;4.05;;;1.83;;
76194;SDS011;64964;48.694;21.206;2023-04-26T09:09:47;1.83;;;1.35;;
76194;SDS011;64964;48.694;21.206;2023-04-26T09:12:17;4.10;;;1.83;;
76194;SDS011;64964;48.694;21.206;2023-04-26T09:14:46;2.22;;;1.40;;
76194;SDS011;64964;48.694;21.206;2023-04-26T09:17:28;6.07;;;1.90;;
76194;SDS011;64964;48.694;21.206;2023-04-26T09:19:54;5.07;;;2.00;;
76194;SDS011;64964;48.694;21.206;2023-04-26T09:22:30;2.97;;;1.90;;
76194;SDS011;64964;48.694;21.206;2023-04-26T09:24:57;6.57;;;1.90;;
76194;SDS011;64964;48.694;21.206;2023-04-26T09:27:34;3.88;;;1.80;;
76194;SDS011;64964;48.694;21.206;2023-04-26T09:30:08;2.80;;;1.80;;
76194;SDS011;64964;48.694;21.206;2023-04-26T09:35:36;3.15;;;1.80;;
76194;SDS011;64964;48.694;21.206;2023-04-26T09:40:39;4.18;;;1.70;;
76194;SDS011;64964;48.694;21.206;2023-04-26T09:48:25;3.85;;;1.90;;
76194;SDS011;64964;48.694;21.206;2023-04-26T09:50:57;2.13;;;1.40;;
76194;SDS011;64964;48.694;21.206;2023-04-26T09:53:39;3.90;;;1.60;;
76194;SDS011;64964;48.694;21.206;2023-04-26T09:58:38;4.47;;;1.65;;
76194;SDS011;64964;48.694;21.206;2023-04-26T10:01:04;3.97;;;1.70;;
76194;SDS011;64964;48.694;21.206;2023-04-26T10:03:32;2.60;;;1.80;;
76194;SDS011;64964;48.694;21.206;2023-04-26T10:05:58;3.25;;;1.33;;
76194;SDS011;64964;48.694;21.206;2023-04-26T10:08:24;3.40;;;1.40;;
76194;SDS011;64964;48.694;21.206;2023-04-26T10:10:50;3.60;;;1.50;;
76194;SDS011;64964;48.694;21.206;2023-04-26T10:13:17;2.50;;;1.75;;
76194;SDS011;64964;48.694;21.206;2023-04-26T10:15:43;3.60;;;1.70;;
76194;SDS011;64964;48.694;21.206;2023-04-26T10:18:09;3.83;;;1.50;;
76194;SDS011;64964;48.694;21.206;2023-04-26T10:20:37;4.10;;;1.80;;
76194;SDS011;64964;48.694;21.206;2023-04-26T10:23:06;2.72;;;1.45;;
76194;SDS011;64964;48.694;21.206;2023-04-26T10:25:45;2.80;;;1.63;;
76194;SDS011;64964;48.694;21.206;2023-04-26T10:28:10;2.17;;;1.50;;
76194;SDS011;64964;48.694;21.206;2023-04-26T10:30:55;4.07;;;1.58;;
76194;SDS011;64964;48.694;21.206;2023-04-26T10:33:22;3.70;;;1.70;;
76194;SDS011;64964;48.694;21.206;2023-04-26T10:36:04;4.22;;;1.60;;
76194;SDS011;64964;48.694;21.206;2023-04-26T10:38:34;4.00;;;1.88;;
76194;SDS011;64964;48.694;21.206;2023-04-26T10:43:57;3.53;;;1.85;;
76194;SDS011;64964;48.694;21.206;2023-04-26T10:46:33;5.60;;;2.00;;
76194;SDS011;64964;48.694;21.206;2023-04-26T10:49:13;5.40;;;2.20;;
76194;SDS011;64964;48.694;21.206;2023-04-26T10:51:40;4.93;;;1.90;;
76194;SDS011;64964;48.694;21.206;2023-04-26T10:54:05;2.92;;;1.80;;
76194;SDS011;64964;48.694;21.206;2023-04-26T10:59:10;1.83;;;1.40;;
76194;SDS011;64964;48.694;21.206;2023-04-26T11:01:38;4.97;;;1.80;;
76194;SDS011;64964;48.694;21.206;2023-04-26T11:04:07;2.60;;;2.07;;
76194;SDS011;64964;48.694;21.206;2023-04-26T11:07:07;2.88;;;1.65;;
76194;SDS011;64964;48.694;21.206;2023-04-26T11:09:36;2.00;;;1.63;;
76194;SDS011;64964;48.694;21.206;2023-04-26T11:12:12;2.80;;;1.70;;
76194;SDS011;64964;48.694;21.206;2023-04-26T11:14:42;3.95;;;1.80;;
76194;SDS011;64964;48.694;21.206;2023-04-26T11:17:08;2.83;;;1.60;;
76194;SDS011;64964;48.694;21.206;2023-04-26T11:19:34;5.28;;;1.80;;
76194;SDS011;64964;48.694;21.206;2023-04-26T11:22:00;3.40;;;1.45;;
76194;SDS011;64964;48.694;21.206;2023-04-26T11:24:27;2.88;;;1.48;;
76194;SDS011;64964;48.694;21.206;2023-04-26T11:26:55;4.77;;;1.80;;
76194;SDS011;64964;48.694;21.206;2023-04-26T11:29:22;2.30;;;1.60;;
76194;SDS011;64964;48.694;21.206;2023-04-26T11:31:54;2.85;;;1.60;;
76194;SDS011;64964;48.694;21.206;2023-04-26T11:34:40;3.63;;;1.70;;
76194;SDS011;64964;48.694;21.206;2023-04-26T11:37:05;2.40;;;1.50;;
76194;SDS011;64964;48.694;21.206;2023-04-26T11:39:32;2.47;;;1.60;;
76194;SDS011;64964;48.694;21.206;2023-04-26T11:42:04;2.20;;;1.58;;
76194;SDS011;64964;48.694;21.206;2023-04-26T11:44:31;4.80;;;2.20;;
76194;SDS011;64964;48.694;21.206;2023-04-26T11:46:56;2.70;;;1.43;;
76194;SDS011;64964;48.694;21.206;2023-04-26T11:49:22;3.22;;;1.95;;
76194;SDS011;64964;48.694;21.206;2023-04-26T11:51:48;3.53;;;1.80;;
76194;SDS011;64964;48.694;21.206;2023-04-26T11:54:29;2.17;;;1.67;;
76194;SDS011;64964;48.694;21.206;2023-04-26T11:56:59;2.05;;;1.55;;
76194;SDS011;64964;48.694;21.206;2023-04-26T11:59:25;3.88;;;1.70;;
76194;SDS011;64964;48.694;21.206;2023-04-26T12:01:51;5.27;;;1.73;;
76194;SDS011;64964;48.694;21.206;2023-04-26T12:04:17;5.75;;;1.50;;
76194;SDS011;64964;48.694;21.206;2023-04-26T12:06:44;2.15;;;1.55;;
76194;SDS011;64964;48.694;21.206;2023-04-26T12:09:10;2.25;;;1.60;;
76194;SDS011;64964;48.694;21.206;2023-04-26T12:11:36;3.30;;;1.60;;
76194;SDS011;64964;48.694;21.206;2023-04-26T12:14:02;4.30;;;1.80;;
76194;SDS011;64964;48.694;21.206;2023-04-26T12:16:28;3.30;;;1.50;;
76194;SDS011;64964;48.694;21.206;2023-04-26T12:18:54;2.47;;;1.80;;
76194;SDS011;64964;48.694;21.206;2023-04-26T12:21:23;2.78;;;1.88;;
76194;SDS011;64964;48.694;21.206;2023-04-26T12:23:49;2.95;;;1.70;;
76194;SDS011;64964;48.694;21.206;2023-04-26T12:26:15;4.97;;;1.70;;
76194;SDS011;64964;48.694;21.206;2023-04-26T12:28:41;1.60;;;1.50;;
76194;SDS011;64964;48.694;21.206;2023-04-26T12:31:07;4.47;;;1.90;;
76194;SDS011;64964;48.694;21.206;2023-04-26T12:33:33;4.82;;;1.55;;
76194;SDS011;64964;48.694;21.206;2023-04-26T12:36:06;3.13;;;1.80;;
76194;SDS011;64964;48.694;21.206;2023-04-26T12:38:33;2.85;;;1.65;;
76194;SDS011;64964;48.694;21.206;2023-04-26T12:40:58;3.40;;;1.77;;
76194;SDS011;64964;48.694;21.206;2023-04-26T12:43:23;3.17;;;1.50;;
76194;SDS011;64964;48.694;21.206;2023-04-26T12:45:50;4.30;;;1.77;;
76194;SDS011;64964;48.694;21.206;2023-04-26T12:48:16;4.63;;;1.80;;
76194;SDS011;64964;48.694;21.206;2023-04-26T12:50:41;2.97;;;1.67;;
76194;SDS011;64964;48.694;21.206;2023-04-26T12:53:06;1.60;;;1.50;;
76194;SDS011;64964;48.694;21.206;2023-04-26T12:55:32;3.30;;;1.85;;
76194;SDS011;64964;48.694;21.206;2023-04-26T12:57:57;2.33;;;1.70;;
76194;SDS011;64964;48.694;21.206;2023-04-26T13:00:22;4.17;;;1.80;;
76194;SDS011;64964;48.694;21.206;2023-04-26T13:02:48;3.73;;;2.10;;
76194;SDS011;64964;48.694;21.206;2023-04-26T13:05:13;3.28;;;1.90;;
76194;SDS011;64964;48.694;21.206;2023-04-26T13:07:40;5.15;;;2.00;;
76194;SDS011;64964;48.694;21.206;2023-04-26T13:10:07;6.93;;;2.23;;
76194;SDS011;64964;48.694;21.206;2023-04-26T13:12:34;2.42;;;1.63;;
76194;SDS011;64964;48.694;21.206;2023-04-26T13:15:00;3.35;;;2.00;;
76194;SDS011;64964;48.694;21.206;2023-04-26T13:17:25;3.40;;;1.90;;
76194;SDS011;64964;48.694;21.206;2023-04-26T13:19:51;3.17;;;1.90;;
76194;SDS011;64964;48.694;21.206;2023-04-26T13:22:17;3.38;;;2.22;;
76194;SDS011;64964;48.694;21.206;2023-04-26T13:24:43;4.38;;;1.80;;
76194;SDS011;64964;48.694;21.206;2023-04-26T13:27:09;2.37;;;1.80;;
76194;SDS011;64964;48.694;21.206;2023-04-26T13:29:34;3.17;;;1.80;;
76194;SDS011;64964;48.694;21.206;2023-04-26T13:32:00;3.07;;;1.70;;
76194;SDS011;64964;48.694;21.206;2023-04-26T13:34:27;3.05;;;1.98;;
76194;SDS011;64964;48.694;21.206;2023-04-26T13:36:53;4.77;;;1.47;;
76194;SDS011;64964;48.694;21.206;2023-04-26T13:39:21;4.35;;;1.70;;
76194;SDS011;64964;48.694;21.206;2023-04-26T13:41:47;5.28;;;2.05;;
76194;SDS011;64964;48.694;21.206;2023-04-26T13:44:13;4.27;;;1.80;;
76194;SDS011;64964;48.694;21.206;2023-04-26T13:46:39;5.43;;;1.65;;
76194;SDS011;64964;48.694;21.206;2023-04-26T13:49:05;2.50;;;1.58;;
76194;SDS011;64964;48.694;21.206;2023-04-26T13:51:31;3.13;;;2.30;;
76194;SDS011;64964;48.694;21.206;2023-04-26T13:53:58;3.80;;;1.50;;
76194;SDS011;64964;48.694;21.206;2023-04-26T13:56:23;2.70;;;1.80;;
76194;SDS011;64964;48.694;21.206;2023-04-26T13:58:49;3.72;;;1.73;;
76194;SDS011;64964;48.694;21.206;2023-04-26T14:01:18;3.30;;;1.95;;
76194;SDS011;64964;48.694;21.206;2023-04-26T14:03:44;3.07;;;1.83;;
76194;SDS011;64964;48.694;21.206;2023-04-26T14:06:09;2.77;;;1.70;;
76194;SDS011;64964;48.694;21.206;2023-04-26T14:08:35;3.00;;;1.80;;
76194;SDS011;64964;48.694;21.206;2023-04-26T14:11:00;2.73;;;1.80;;
76194;SDS011;64964;48.694;21.206;2023-04-26T14:13:26;3.70;;;2.37;;
76194;SDS011;64964;48.694;21.206;2023-04-26T14:15:51;3.87;;;1.80;;
76194;SDS011;64964;48.694;21.206;2023-04-26T14:18:16;3.43;;;1.93;;
76194;SDS011;64964;48.694;21.206;2023-04-26T14:20:42;3.03;;;1.70;;
76194;SDS011;64964;48.694;21.206;2023-04-26T14:23:07;4.73;;;1.77;;
76194;SDS011;64964;48.694;21.206;2023-04-26T14:25:33;3.17;;;1.80;;
76194;SDS011;64964;48.694;21.206;2023-04-26T14:27:58;3.15;;;1.73;;
76194;SDS011;64964;48.694;21.206;2023-04-26T14:30:25;4.20;;;1.80;;
76194;SDS011;64964;48.694;21.206;2023-04-26T14:32:51;3.35;;;1.90;;
76194;SDS011;64964;48.694;21.206;2023-04-26T14:35:16;2.47;;;1.77;;
76194;SDS011;64964;48.694;21.206;2023-04-26T14:37:41;4.93;;;1.80;;
76194;SDS011;64964;48.694;21.206;2023-04-26T14:40:07;2.77;;;1.67;;
76194;SDS011;64964;48.694;21.206;2023-04-26T14:42:33;2.83;;;1.70;;
76194;SDS011;64964;48.694;21.206;2023-04-26T14:44:58;2.55;;;1.80;;
76194;SDS011;64964;48.694;21.206;2023-04-26T14:47:24;2.40;;;1.60;;
76194;SDS011;64964;48.694;21.206;2023-04-26T14:49:50;3.95;;;1.92;;
76194;SDS011;64964;48.694;21.206;2023-04-26T14:52:15;2.53;;;1.70;;